Etusivu
METAR-TAF:

METAR-TAF

Lentoasemat :

Gamvik, Norja

Leveyspiiri: 71-02N, Pituuspiiri: 027-50E, korkeus merenpinnasta: 1 m

Tämänhetkinen sää

Tämä raportti tehtiin 4 tuntia ja 3 minuuttia sitten, kello 21.50 UTC
Tuuli 11 kn lounaasta
Lämpötila -1°C
Kosteus 64%
Ilmanpaine 1001 hPa
Näkyvyys 10 km tai enemmän
Muutamia pilviä 3000 ft:n korkeudessa
Hajanaisia pilviä 4200 ft:n korkeudessa

METAR: ENMH 252150Z 22011KT 9999 FEW030 SCT042 M01/M07 Q1001

Aika: 02:53 (01:53 UTC)


TAF: puuttuu

Säähavainnot ja -ennusteet yli 4000 lentoasemalta (METAR- ja TAF-raportit).

Käytössä olevat sääasemat on merkitty karttaan keltaisilla ja punaisilla pisteillä.

Aseta hiiri pisteen päälle nähdäksesi sääaseman nimen.

Klikkaa sitten nähdäksesi säähavainnot ja -ennusteet.

Kartan vaihtaminen: klikkaa mustalla rastilla varustettuja vihreitä pisteitä, niin voit zoomata sisään; viivalla varustettua vihreää pistettä, niin voit zoomata ulos tai vihreitä nuolia, niin pääset viereisille kartoille.


METAR-TAF: